sensor_id;sensor_type;location;lat;lon;timestamp;pressure;altitude;pressure_sealevel;temperature;humidity
59487;BME280;45298;54.918;73.504;2022-12-07T00:01:49;102538.13;;;-17.38;76.40
59487;BME280;45298;54.918;73.504;2022-12-07T00:04:18;102560.47;;;-17.34;76.95
59487;BME280;45298;54.918;73.504;2022-12-07T00:06:51;102493.41;;;-17.74;76.04
59487;BME280;45298;54.918;73.504;2022-12-07T00:09:21;102511.13;;;-17.66;76.80
59487;BME280;45298;54.918;73.504;2022-12-07T00:11:51;102566.19;;;-17.37;76.08
59487;BME280;45298;54.918;73.504;2022-12-07T00:14:20;102542.66;;;-17.53;76.37
59487;BME280;45298;54.918;73.504;2022-12-07T00:16:51;102530.19;;;-17.60;76.29
59487;BME280;45298;54.918;73.504;2022-12-07T00:19:20;102568.72;;;-17.37;76.36
59487;BME280;45298;54.918;73.504;2022-12-07T00:21:49;102424.22;;;-18.20;76.78
59487;BME280;45298;54.918;73.504;2022-12-07T00:24:18;102576.44;;;-17.35;77.14
59487;BME280;45298;54.918;73.504;2022-12-07T00:26:47;102553.38;;;-17.47;75.92
59487;BME280;45298;54.918;73.504;2022-12-07T00:29:21;102589.84;;;-17.27;76.33
59487;BME280;45298;54.918;73.504;2022-12-07T00:31:52;102565.69;;;-17.33;77.12
59487;BME280;45298;54.918;73.504;2022-12-07T00:34:22;102558.06;;;-17.33;76.78
59487;BME280;45298;54.918;73.504;2022-12-07T00:36:51;102577.19;;;-17.36;76.31
59487;BME280;45298;54.918;73.504;2022-12-07T00:39:20;102554.25;;;-17.38;76.83
59487;BME280;45298;54.918;73.504;2022-12-07T00:41:49;102564.06;;;-17.32;76.39
59487;BME280;45298;54.918;73.504;2022-12-07T00:44:19;102543.19;;;-17.38;76.37
59487;BME280;45298;54.918;73.504;2022-12-07T00:46:48;102586.91;;;-17.13;76.34
59487;BME280;45298;54.918;73.504;2022-12-07T00:49:16;102587.19;;;-17.10;76.62
59487;BME280;45298;54.918;73.504;2022-12-07T00:51:48;102581.84;;;-17.13;76.83
59487;BME280;45298;54.918;73.504;2022-12-07T00:54:17;102556.81;;;-17.19;76.05
59487;BME280;45298;54.918;73.504;2022-12-07T00:56:46;102563.81;;;-17.16;75.87
59487;BME280;45298;54.918;73.504;2022-12-07T00:59:14;102552.63;;;-17.18;77.14
59487;BME280;45298;54.918;73.504;2022-12-07T01:01:43;102558.25;;;-17.12;76.86
59487;BME280;45298;54.918;73.504;2022-12-07T01:04:12;102559.97;;;-17.02;75.91
59487;BME280;45298;54.918;73.504;2022-12-07T01:06:41;102549.13;;;-17.10;76.05
59487;BME280;45298;54.918;73.504;2022-12-07T01:09:10;102548.38;;;-17.09;76.03
59487;BME280;45298;54.918;73.504;2022-12-07T01:11:39;102561.63;;;-17.03;76.72
59487;BME280;45298;54.918;73.504;2022-12-07T01:14:08;102561.16;;;-16.98;76.84
59487;BME280;45298;54.918;73.504;2022-12-07T01:16:38;102542.69;;;-17.06;76.27
59487;BME280;45298;54.918;73.504;2022-12-07T01:19:08;102464.03;;;-17.53;76.31
59487;BME280;45298;54.918;73.504;2022-12-07T01:21:38;102519.66;;;-17.18;76.66
59487;BME280;45298;54.918;73.504;2022-12-07T01:24:09;102562.41;;;-16.93;76.45
59487;BME280;45298;54.918;73.504;2022-12-07T01:26:38;102536.72;;;-17.07;76.17
59487;BME280;45298;54.918;73.504;2022-12-07T01:29:07;102556.19;;;-16.97;76.03
59487;BME280;45298;54.918;73.504;2022-12-07T01:31:36;102568.50;;;-16.91;76.32
59487;BME280;45298;54.918;73.504;2022-12-07T01:34:05;102540.56;;;-17.02;76.78
59487;BME280;45298;54.918;73.504;2022-12-07T01:36:36;102511.28;;;-17.17;76.18
59487;BME280;45298;54.918;73.504;2022-12-07T01:39:07;102529.03;;;-16.98;77.02
59487;BME280;45298;54.918;73.504;2022-12-07T01:41:39;102457.56;;;-17.41;76.20
59487;BME280;45298;54.918;73.504;2022-12-07T01:47:01;102530.69;;;-16.98;77.16
59487;BME280;45298;54.918;73.504;2022-12-07T01:49:34;102539.56;;;-16.93;75.86
59487;BME280;45298;54.918;73.504;2022-12-07T01:52:24;102537.28;;;-17.00;76.13
59487;BME280;45298;54.918;73.504;2022-12-07T01:54:58;102435.91;;;-17.56;76.50
59487;BME280;45298;54.918;73.504;2022-12-07T01:57:29;102539.66;;;-17.02;76.57
59487;BME280;45298;54.918;73.504;2022-12-07T01:59:59;102555.06;;;-16.90;76.37
59487;BME280;45298;54.918;73.504;2022-12-07T02:05:27;102539.81;;;-17.00;76.24
59487;BME280;45298;54.918;73.504;2022-12-07T02:07:57;102562.22;;;-16.86;75.91
59487;BME280;45298;54.918;73.504;2022-12-07T02:10:29;102552.06;;;-16.86;76.47
59487;BME280;45298;54.918;73.504;2022-12-07T02:13:11;102505.16;;;-17.19;76.16
59487;BME280;45298;54.918;73.504;2022-12-07T02:30:31;102487.78;;;-17.34;75.44
59487;BME280;45298;54.918;73.504;2022-12-07T02:33:20;102541.31;;;-17.03;76.45
59487;BME280;45298;54.918;73.504;2022-12-07T02:36:11;102548.94;;;-17.03;76.69
59487;BME280;45298;54.918;73.504;2022-12-07T02:39:03;102565.78;;;-17.03;76.25
59487;BME280;45298;54.918;73.504;2022-12-07T02:41:42;102509.28;;;-17.30;76.01
59487;BME280;45298;54.918;73.504;2022-12-07T02:44:17;102547.06;;;-17.14;75.79
59487;BME280;45298;54.918;73.504;2022-12-07T02:46:51;102554.47;;;-17.07;75.43
59487;BME280;45298;54.918;73.504;2022-12-07T02:49:23;102512.97;;;-17.26;75.30
59487;BME280;45298;54.918;73.504;2022-12-07T02:51:53;102556.00;;;-17.09;76.18
59487;BME280;45298;54.918;73.504;2022-12-07T02:54:22;102543.94;;;-17.11;76.29
59487;BME280;45298;54.918;73.504;2022-12-07T02:59:40;102578.19;;;-16.97;75.87
59487;BME280;45298;54.918;73.504;2022-12-07T03:13:28;102574.78;;;-17.07;75.30
59487;BME280;45298;54.918;73.504;2022-12-07T03:18:46;102511.31;;;-17.45;76.17
59487;BME280;45298;54.918;73.504;2022-12-07T03:21:19;102566.88;;;-17.10;76.18
59487;BME280;45298;54.918;73.504;2022-12-07T03:23:54;102573.19;;;-17.15;75.95
59487;BME280;45298;54.918;73.504;2022-12-07T03:26:32;102549.41;;;-17.26;76.28
59487;BME280;45298;54.918;73.504;2022-12-07T03:29:16;102484.25;;;-17.64;75.61
59487;BME280;45298;54.918;73.504;2022-12-07T03:31:53;102554.47;;;-17.26;76.82
59487;BME280;45298;54.918;73.504;2022-12-07T03:34:34;102535.00;;;-17.36;75.55
59487;BME280;45298;54.918;73.504;2022-12-07T03:37:20;102550.00;;;-17.28;75.57
59487;BME280;45298;54.918;73.504;2022-12-07T03:42:39;102545.88;;;-17.37;75.97
59487;BME280;45298;54.918;73.504;2022-12-07T03:45:09;102553.75;;;-17.34;76.14
59487;BME280;45298;54.918;73.504;2022-12-07T03:48:04;102573.97;;;-17.16;75.82
59487;BME280;45298;54.918;73.504;2022-12-07T03:51:09;102565.78;;;-17.22;75.42
59487;BME280;45298;54.918;73.504;2022-12-07T03:53:57;102562.34;;;-17.23;75.55
59487;BME280;45298;54.918;73.504;2022-12-07T03:56:29;102552.69;;;-17.27;75.84
59487;BME280;45298;54.918;73.504;2022-12-07T03:58:58;102576.50;;;-17.16;75.81
59487;BME280;45298;54.918;73.504;2022-12-07T04:01:27;102553.56;;;-17.26;75.38
59487;BME280;45298;54.918;73.504;2022-12-07T04:03:56;102549.72;;;-17.32;75.21
59487;BME280;45298;54.918;73.504;2022-12-07T04:06:27;102545.25;;;-17.34;75.89
59487;BME280;45298;54.918;73.504;2022-12-07T04:08:56;102580.97;;;-17.13;75.43
59487;BME280;45298;54.918;73.504;2022-12-07T04:11:25;102551.66;;;-17.29;75.47
59487;BME280;45298;54.918;73.504;2022-12-07T04:13:54;102558.94;;;-17.23;75.39
59487;BME280;45298;54.918;73.504;2022-12-07T04:16:41;102569.91;;;-17.14;75.55
59487;BME280;45298;54.918;73.504;2022-12-07T04:19:14;102579.28;;;-17.13;75.19
59487;BME280;45298;54.918;73.504;2022-12-07T04:21:43;102574.84;;;-17.15;75.50
59487;BME280;45298;54.918;73.504;2022-12-07T04:24:13;102526.34;;;-17.38;76.01
59487;BME280;45298;54.918;73.504;2022-12-07T04:26:43;102585.69;;;-17.08;75.00
59487;BME280;45298;54.918;73.504;2022-12-07T04:29:12;102551.66;;;-17.29;75.30
59487;BME280;45298;54.918;73.504;2022-12-07T04:31:41;102545.53;;;-17.31;75.79
59487;BME280;45298;54.918;73.504;2022-12-07T04:34:10;102558.66;;;-17.26;75.40
59487;BME280;45298;54.918;73.504;2022-12-07T04:36:40;102578.25;;;-17.15;75.36
59487;BME280;45298;54.918;73.504;2022-12-07T04:39:27;102580.03;;;-17.14;76.27
59487;BME280;45298;54.918;73.504;2022-12-07T04:41:56;102568.59;;;-17.19;75.49
59487;BME280;45298;54.918;73.504;2022-12-07T04:44:26;102581.84;;;-17.13;75.27
59487;BME280;45298;54.918;73.504;2022-12-07T04:46:55;102549.25;;;-17.27;76.00
59487;BME280;45298;54.918;73.504;2022-12-07T04:49:25;102583.03;;;-17.09;75.47
59487;BME280;45298;54.918;73.504;2022-12-07T04:51:54;102464.31;;;-17.69;75.42
59487;BME280;45298;54.918;73.504;2022-12-07T04:54:23;102535.53;;;-17.29;75.36
59487;BME280;45298;54.918;73.504;2022-12-07T04:56:52;102537.25;;;-17.20;74.72
59487;BME280;45298;54.918;73.504;2022-12-07T04:59:20;102560.88;;;-17.02;74.93
59487;BME280;45298;54.918;73.504;2022-12-07T05:01:49;102547.78;;;-17.06;75.50
59487;BME280;45298;54.918;73.504;2022-12-07T05:04:18;102549.50;;;-16.96;74.46
59487;BME280;45298;54.918;73.504;2022-12-07T05:06:47;102546.69;;;-16.89;75.01
59487;BME280;45298;54.918;73.504;2022-12-07T05:09:16;102546.09;;;-16.87;74.32
59487;BME280;45298;54.918;73.504;2022-12-07T05:11:45;102567.22;;;-16.77;74.22
59487;BME280;45298;54.918;73.504;2022-12-07T05:14:18;102563.97;;;-16.66;74.91
59487;BME280;45298;54.918;73.504;2022-12-07T05:16:49;102591.38;;;-16.53;73.96
59487;BME280;45298;54.918;73.504;2022-12-07T05:19:19;102479.44;;;-17.13;74.60
59487;BME280;45298;54.918;73.504;2022-12-07T05:21:48;102565.16;;;-16.62;74.52
59487;BME280;45298;54.918;73.504;2022-12-07T05:24:17;102586.38;;;-16.43;75.16
59487;BME280;45298;54.918;73.504;2022-12-07T05:26:46;102573.00;;;-16.50;74.78
59487;BME280;45298;54.918;73.504;2022-12-07T05:29:17;102545.59;;;-16.63;73.94
59487;BME280;45298;54.918;73.504;2022-12-07T05:31:46;102554.56;;;-16.48;74.90
59487;BME280;45298;54.918;73.504;2022-12-07T05:34:15;102568.63;;;-16.32;73.98
59487;BME280;45298;54.918;73.504;2022-12-07T05:36:44;102551.94;;;-16.39;74.26
59487;BME280;45298;54.918;73.504;2022-12-07T05:39:13;102588.25;;;-16.21;73.72
59487;BME280;45298;54.918;73.504;2022-12-07T05:41:43;102567.38;;;-16.27;73.67
59487;BME280;45298;54.918;73.504;2022-12-07T05:44:30;102499.88;;;-16.63;73.88
59487;BME280;45298;54.918;73.504;2022-12-07T05:46:59;102553.78;;;-16.28;73.76
59487;BME280;45298;54.918;73.504;2022-12-07T05:49:29;102533.03;;;-16.32;73.92
59487;BME280;45298;54.918;73.504;2022-12-07T05:51:59;102461.25;;;-16.69;73.91
59487;BME280;45298;54.918;73.504;2022-12-07T05:54:27;102528.50;;;-16.26;73.91
59487;BME280;45298;54.918;73.504;2022-12-07T05:56:56;102557.28;;;-16.06;73.97
59487;BME280;45298;54.918;73.504;2022-12-07T05:59:25;102512.63;;;-16.23;73.45
59487;BME280;45298;54.918;73.504;2022-12-07T06:01:58;102559.09;;;-15.95;73.92
59487;BME280;45298;54.918;73.504;2022-12-07T06:04:31;102549.97;;;-15.93;74.29
59487;BME280;45298;54.918;73.504;2022-12-07T06:07:01;102514.19;;;-16.05;73.48
59487;BME280;45298;54.918;73.504;2022-12-07T06:09:30;102527.06;;;-16.03;73.84
59487;BME280;45298;54.918;73.504;2022-12-07T06:11:59;102536.38;;;-15.93;74.25
59487;BME280;45298;54.918;73.504;2022-12-07T06:14:46;102515.88;;;-15.95;74.50
59487;BME280;45298;54.918;73.504;2022-12-07T06:17:15;102513.59;;;-15.92;73.81
59487;BME280;45298;54.918;73.504;2022-12-07T06:19:45;102532.81;;;-15.85;73.28
59487;BME280;45298;54.918;73.504;2022-12-07T06:22:14;102513.16;;;-16.07;73.63
59487;BME280;45298;54.918;73.504;2022-12-07T06:24:44;102534.44;;;-15.96;73.05
59487;BME280;45298;54.918;73.504;2022-12-07T06:27:13;102495.47;;;-16.16;73.79
59487;BME280;45298;54.918;73.504;2022-12-07T06:29:45;102523.50;;;-16.05;73.06
59487;BME280;45298;54.918;73.504;2022-12-07T06:32:14;102511.41;;;-16.08;73.40
59487;BME280;45298;54.918;73.504;2022-12-07T06:34:42;102503.63;;;-16.09;74.50
59487;BME280;45298;54.918;73.504;2022-12-07T06:37:11;102522.25;;;-16.00;74.19
59487;BME280;45298;54.918;73.504;2022-12-07T06:39:40;102497.25;;;-16.25;73.97
59487;BME280;45298;54.918;73.504;2022-12-07T06:42:09;102508.72;;;-16.20;73.34
59487;BME280;45298;54.918;73.504;2022-12-07T06:44:38;102551.41;;;-16.16;73.49
59487;BME280;45298;54.918;73.504;2022-12-07T06:47:07;102526.53;;;-16.09;73.25
59487;BME280;45298;54.918;73.504;2022-12-07T06:49:58;102440.22;;;-16.58;74.19
59487;BME280;45298;54.918;73.504;2022-12-07T06:52:28;102491.78;;;-16.30;73.63
59487;BME280;45298;54.918;73.504;2022-12-07T06:54:59;102528.78;;;-16.13;73.39
59487;BME280;45298;54.918;73.504;2022-12-07T06:57:31;102496.75;;;-16.21;74.28
59487;BME280;45298;54.918;73.504;2022-12-07T07:00:00;102505.03;;;-16.13;74.29
59487;BME280;45298;54.918;73.504;2022-12-07T07:02:29;102439.72;;;-16.54;73.32
59487;BME280;45298;54.918;73.504;2022-12-07T07:04:59;102498.78;;;-16.17;74.17
59487;BME280;45298;54.918;73.504;2022-12-07T07:07:28;102496.88;;;-16.19;73.87
59487;BME280;45298;54.918;73.504;2022-12-07T07:09:57;102489.75;;;-16.23;74.17
59487;BME280;45298;54.918;73.504;2022-12-07T07:12:26;102505.25;;;-16.20;73.41
59487;BME280;45298;54.918;73.504;2022-12-07T07:14:55;102521.06;;;-16.14;73.35
59487;BME280;45298;54.918;73.504;2022-12-07T07:17:25;102466.69;;;-16.46;72.99
59487;BME280;45298;54.918;73.504;2022-12-07T07:19:54;102498.38;;;-16.32;73.16
59487;BME280;45298;54.918;73.504;2022-12-07T07:22:22;102516.06;;;-16.23;72.90
59487;BME280;45298;54.918;73.504;2022-12-07T07:24:51;102482.19;;;-16.43;73.22
59487;BME280;45298;54.918;73.504;2022-12-07T07:27:20;102434.13;;;-16.60;73.81
59487;BME280;45298;54.918;73.504;2022-12-07T07:29:48;102486.31;;;-16.24;74.04
59487;BME280;45298;54.918;73.504;2022-12-07T07:32:17;102425.22;;;-16.55;73.91
59487;BME280;45298;54.918;73.504;2022-12-07T07:34:46;102495.00;;;-16.12;73.02
59487;BME280;45298;54.918;73.504;2022-12-07T07:37:17;102483.28;;;-16.20;73.87
59487;BME280;45298;54.918;73.504;2022-12-07T07:39:48;102475.25;;;-16.24;72.98
59487;BME280;45298;54.918;73.504;2022-12-07T07:42:17;102508.13;;;-15.97;73.14
59487;BME280;45298;54.918;73.504;2022-12-07T07:44:47;102520.84;;;-15.86;73.74
59487;BME280;45298;54.918;73.504;2022-12-07T07:47:15;102510.31;;;-15.81;72.93
59487;BME280;45298;54.918;73.504;2022-12-07T07:49:44;102491.75;;;-15.80;72.97
59487;BME280;45298;54.918;73.504;2022-12-07T07:52:14;102498.34;;;-15.71;72.59
59487;BME280;45298;54.918;73.504;2022-12-07T07:54:43;102487.16;;;-15.73;72.70
59487;BME280;45298;54.918;73.504;2022-12-07T07:57:12;102462.75;;;-15.82;72.61
59487;BME280;45298;54.918;73.504;2022-12-07T07:59:40;102481.06;;;-15.65;73.23
59487;BME280;45298;54.918;73.504;2022-12-07T08:02:14;102471.50;;;-15.68;73.14
59487;BME280;45298;54.918;73.504;2022-12-07T08:04:43;102491.75;;;-15.48;73.46
59487;BME280;45298;54.918;73.504;2022-12-07T08:07:14;102499.00;;;-15.43;73.45
59487;BME280;45298;54.918;73.504;2022-12-07T08:09:43;102455.63;;;-15.65;73.53
59487;BME280;45298;54.918;73.504;2022-12-07T08:12:12;102465.03;;;-15.64;73.05
59487;BME280;45298;54.918;73.504;2022-12-07T08:14:41;102467.59;;;-15.64;73.69
59487;BME280;45298;54.918;73.504;2022-12-07T08:17:09;102490.22;;;-15.57;72.88
59487;BME280;45298;54.918;73.504;2022-12-07T08:19:38;102482.47;;;-15.58;72.88
59487;BME280;45298;54.918;73.504;2022-12-07T08:22:07;102475.31;;;-15.62;73.57
59487;BME280;45298;54.918;73.504;2022-12-07T08:24:36;102462.50;;;-15.64;72.74
59487;BME280;45298;54.918;73.504;2022-12-07T08:27:05;102445.16;;;-15.78;73.33
59487;BME280;45298;54.918;73.504;2022-12-07T08:29:36;102391.94;;;-16.08;73.07
59487;BME280;45298;54.918;73.504;2022-12-07T08:32:05;102469.09;;;-15.66;73.44
59487;BME280;45298;54.918;73.504;2022-12-07T08:34:39;102452.03;;;-15.77;72.99
59487;BME280;45298;54.918;73.504;2022-12-07T08:37:08;102466.53;;;-15.76;72.92
59487;BME280;45298;54.918;73.504;2022-12-07T08:39:36;102464.13;;;-15.75;72.54
59487;BME280;45298;54.918;73.504;2022-12-07T08:42:05;102458.91;;;-15.76;73.01
59487;BME280;45298;54.918;73.504;2022-12-07T08:44:34;102487.16;;;-15.63;72.45
59487;BME280;45298;54.918;73.504;2022-12-07T08:47:05;102462.88;;;-15.70;72.46
59487;BME280;45298;54.918;73.504;2022-12-07T08:49:41;102465.41;;;-15.70;73.03
59487;BME280;45298;54.918;73.504;2022-12-07T08:52:12;102452.56;;;-15.71;72.79
59487;BME280;45298;54.918;73.504;2022-12-07T08:54:41;102439.09;;;-15.81;72.47
59487;BME280;45298;54.918;73.504;2022-12-07T08:57:13;102464.63;;;-15.69;73.65
59487;BME280;45298;54.918;73.504;2022-12-07T08:59:41;102455.75;;;-15.74;73.26
59487;BME280;45298;54.918;73.504;2022-12-07T09:02:10;102379.47;;;-16.15;73.69
59487;BME280;45298;54.918;73.504;2022-12-07T09:04:39;102441.09;;;-15.76;72.32
59487;BME280;45298;54.918;73.504;2022-12-07T09:07:08;102448.22;;;-15.72;73.19
59487;BME280;45298;54.918;73.504;2022-12-07T09:09:38;102479.25;;;-15.56;73.85
59487;BME280;45298;54.918;73.504;2022-12-07T09:12:06;102442.63;;;-15.78;73.16
59487;BME280;45298;54.918;73.504;2022-12-07T09:14:35;102457.53;;;-15.73;73.54
59487;BME280;45298;54.918;73.504;2022-12-07T09:17:06;102454.09;;;-15.73;73.44
59487;BME280;45298;54.918;73.504;2022-12-07T09:19:36;102453.06;;;-15.75;73.18
59487;BME280;45298;54.918;73.504;2022-12-07T09:22:05;102451.44;;;-15.85;72.52
59487;BME280;45298;54.918;73.504;2022-12-07T09:24:34;102456.41;;;-15.87;72.40
59487;BME280;45298;54.918;73.504;2022-12-07T09:27:03;102453.84;;;-15.87;73.77
59487;BME280;45298;54.918;73.504;2022-12-07T09:29:32;102457.91;;;-15.89;72.84
59487;BME280;45298;54.918;73.504;2022-12-07T09:32:01;102462.38;;;-15.97;72.79
59487;BME280;45298;54.918;73.504;2022-12-07T09:34:37;102444.94;;;-16.02;72.46
59487;BME280;45298;54.918;73.504;2022-12-07T09:37:07;102452.31;;;-16.05;73.16
59487;BME280;45298;54.918;73.504;2022-12-07T09:39:40;102437.44;;;-16.11;73.67
59487;BME280;45298;54.918;73.504;2022-12-07T09:44:58;102468.22;;;-15.87;73.11
59487;BME280;45298;54.918;73.504;2022-12-07T09:47:28;102451.28;;;-15.97;72.89
59487;BME280;45298;54.918;73.504;2022-12-07T09:50:04;102424.19;;;-16.17;73.73
59487;BME280;45298;54.918;73.504;2022-12-07T09:52:34;102440.72;;;-16.12;73.40
59487;BME280;45298;54.918;73.504;2022-12-07T09:55:27;102468.69;;;-16.12;73.00
59487;BME280;45298;54.918;73.504;2022-12-07T09:57:57;102440.09;;;-16.20;73.82
59487;BME280;45298;54.918;73.504;2022-12-07T10:00:26;102484.22;;;-15.99;74.05
59487;BME280;45298;54.918;73.504;2022-12-07T10:02:58;102442.00;;;-16.17;74.45
59487;BME280;45298;54.918;73.504;2022-12-07T10:05:31;102450.25;;;-16.09;73.49
59487;BME280;45298;54.918;73.504;2022-12-07T10:08:03;102453.34;;;-16.03;74.41
59487;BME280;45298;54.918;73.504;2022-12-07T10:10:34;102445.19;;;-16.09;72.90
59487;BME280;45298;54.918;73.504;2022-12-07T10:13:11;102451.94;;;-16.00;74.10
59487;BME280;45298;54.918;73.504;2022-12-07T10:23:32;102472.75;;;-16.04;73.53
59487;BME280;45298;54.918;73.504;2022-12-07T10:26:43;102472.88;;;-16.13;73.60
59487;BME280;45298;54.918;73.504;2022-12-07T10:31:45;102455.81;;;-16.24;73.83
59487;BME280;45298;54.918;73.504;2022-12-07T10:34:44;102473.34;;;-16.17;73.97
59487;BME280;45298;54.918;73.504;2022-12-07T10:37:29;102458.38;;;-16.24;73.17
59487;BME280;45298;54.918;73.504;2022-12-07T10:39:58;102419.81;;;-16.49;73.22
59487;BME280;45298;54.918;73.504;2022-12-07T10:42:29;102422.47;;;-16.48;73.88
59487;BME280;45298;54.918;73.504;2022-12-07T10:45:14;102471.34;;;-16.21;73.03
59487;BME280;45298;54.918;73.504;2022-12-07T10:48:06;102352.38;;;-16.86;73.83
59487;BME280;45298;54.918;73.504;2022-12-07T10:51:05;102453.41;;;-16.22;74.14
59487;BME280;45298;54.918;73.504;2022-12-07T10:54:01;102465.09;;;-16.24;73.57
59487;BME280;45298;54.918;73.504;2022-12-07T11:13:18;102460.22;;;-16.42;73.84
59487;BME280;45298;54.918;73.504;2022-12-07T11:21:32;102447.66;;;-16.41;74.29
59487;BME280;45298;54.918;73.504;2022-12-07T11:29:28;102457.53;;;-16.44;74.12
59487;BME280;45298;54.918;73.504;2022-12-07T11:37:40;102443.81;;;-16.46;73.73
59487;BME280;45298;54.918;73.504;2022-12-07T11:40:35;102449.66;;;-16.47;73.68
59487;BME280;45298;54.918;73.504;2022-12-07T11:43:17;102452.84;;;-16.49;73.26
59487;BME280;45298;54.918;73.504;2022-12-07T11:46:12;102429.66;;;-16.63;73.51
59487;BME280;45298;54.918;73.504;2022-12-07T11:51:18;102332.28;;;-17.33;73.36
59487;BME280;45298;54.918;73.504;2022-12-07T11:53:55;102419.91;;;-16.58;73.79
59487;BME280;45298;54.918;73.504;2022-12-07T11:56:27;102414.56;;;-16.61;73.92
59487;BME280;45298;54.918;73.504;2022-12-07T11:59:10;102447.38;;;-16.44;73.19
59487;BME280;45298;54.918;73.504;2022-12-07T12:01:50;102430.47;;;-16.53;74.27
59487;BME280;45298;54.918;73.504;2022-12-07T12:04:59;102444.69;;;-16.45;73.13
59487;BME280;45298;54.918;73.504;2022-12-07T12:07:31;102341.09;;;-16.99;74.04
59487;BME280;45298;54.918;73.504;2022-12-07T12:10:35;102437.50;;;-16.41;73.58
59487;BME280;45298;54.918;73.504;2022-12-07T12:19:28;102464.03;;;-16.37;74.01
59487;BME280;45298;54.918;73.504;2022-12-07T12:22:16;102435.44;;;-16.34;73.37
59487;BME280;45298;54.918;73.504;2022-12-07T12:24:49;102437.13;;;-16.35;73.23
59487;BME280;45298;54.918;73.504;2022-12-07T12:27:27;102403.91;;;-16.57;73.02
59487;BME280;45298;54.918;73.504;2022-12-07T12:30:01;102409.22;;;-16.54;73.20
59487;BME280;45298;54.918;73.504;2022-12-07T12:35:31;102384.53;;;-16.76;74.16
59487;BME280;45298;54.918;73.504;2022-12-07T12:38:32;102430.72;;;-16.50;74.36
59487;BME280;45298;54.918;73.504;2022-12-07T12:41:04;102318.91;;;-17.21;73.49
59487;BME280;45298;54.918;73.504;2022-12-07T12:43:46;102444.56;;;-16.57;73.67
59487;BME280;45298;54.918;73.504;2022-12-07T12:49:35;102435.09;;;-16.68;73.58
59487;BME280;45298;54.918;73.504;2022-12-07T12:57:32;102428.88;;;-17.02;73.39
59487;BME280;45298;54.918;73.504;2022-12-07T13:00:15;102440.94;;;-16.99;74.23
59487;BME280;45298;54.918;73.504;2022-12-07T13:02:55;102431.28;;;-17.03;74.72
59487;BME280;45298;54.918;73.504;2022-12-07T13:05:31;102403.75;;;-17.28;74.54
59487;BME280;45298;54.918;73.504;2022-12-07T13:08:22;102432.09;;;-17.13;74.48
59487;BME280;45298;54.918;73.504;2022-12-07T13:10:50;102421.00;;;-17.24;74.74
59487;BME280;45298;54.918;73.504;2022-12-07T13:15:54;102433.56;;;-17.25;74.72
59487;BME280;45298;54.918;73.504;2022-12-07T13:31:55;102387.41;;;-17.79;74.96
59487;BME280;45298;54.918;73.504;2022-12-07T13:34:39;102379.13;;;-17.86;73.99
59487;BME280;45298;54.918;73.504;2022-12-07T13:37:10;102426.41;;;-17.68;74.88
59487;BME280;45298;54.918;73.504;2022-12-07T13:39:50;102421.97;;;-17.70;74.70
59487;BME280;45298;54.918;73.504;2022-12-07T13:42:25;102397.16;;;-17.83;74.29
59487;BME280;45298;54.918;73.504;2022-12-07T13:44:58;102357.78;;;-17.99;74.12
59487;BME280;45298;54.918;73.504;2022-12-07T13:47:54;102408.38;;;-17.71;74.30
59487;BME280;45298;54.918;73.504;2022-12-07T13:53:00;102388.22;;;-17.88;74.76
59487;BME280;45298;54.918;73.504;2022-12-07T13:55:29;102378.56;;;-17.93;74.23
59487;BME280;45298;54.918;73.504;2022-12-07T13:57:59;102406.19;;;-17.76;74.86
59487;BME280;45298;54.918;73.504;2022-12-07T14:00:29;102369.41;;;-18.01;74.20
59487;BME280;45298;54.918;73.504;2022-12-07T14:03:04;102409.63;;;-17.76;74.57
59487;BME280;45298;54.918;73.504;2022-12-07T14:06:05;102275.00;;;-18.56;74.50
59487;BME280;45298;54.918;73.504;2022-12-07T14:08:34;102385.56;;;-17.90;74.95
59487;BME280;45298;54.918;73.504;2022-12-07T14:11:03;102391.94;;;-17.85;74.63
59487;BME280;45298;54.918;73.504;2022-12-07T14:13:34;102411.13;;;-17.78;74.10
59487;BME280;45298;54.918;73.504;2022-12-07T14:16:18;102278.34;;;-18.46;74.33
59487;BME280;45298;54.918;73.504;2022-12-07T14:18:49;102290.06;;;-18.38;74.16
59487;BME280;45298;54.918;73.504;2022-12-07T14:21:21;102384.19;;;-17.86;74.47
59487;BME280;45298;54.918;73.504;2022-12-07T14:26:32;102379.31;;;-17.94;73.75
59487;BME280;45298;54.918;73.504;2022-12-07T14:31:55;102372.06;;;-17.99;73.39
59487;BME280;45298;54.918;73.504;2022-12-07T14:34:24;102400.91;;;-17.88;73.63
59487;BME280;45298;54.918;73.504;2022-12-07T14:36:53;102421.19;;;-17.88;74.20
59487;BME280;45298;54.918;73.504;2022-12-07T14:39:22;102401.59;;;-18.00;73.43
59487;BME280;45298;54.918;73.504;2022-12-07T14:41:51;102393.31;;;-18.07;73.70
59487;BME280;45298;54.918;73.504;2022-12-07T14:44:21;102372.22;;;-18.26;73.58
59487;BME280;45298;54.918;73.504;2022-12-07T14:46:55;102374.06;;;-18.33;73.74
59487;BME280;45298;54.918;73.504;2022-12-07T14:49:44;102363.97;;;-18.42;74.26
59487;BME280;45298;54.918;73.504;2022-12-07T14:52:31;102394.31;;;-18.33;74.23
59487;BME280;45298;54.918;73.504;2022-12-07T14:55:26;102394.22;;;-18.44;73.91
59487;BME280;45298;54.918;73.504;2022-12-07T14:57:56;102372.41;;;-18.61;74.45
59487;BME280;45298;54.918;73.504;2022-12-07T15:00:27;102374.97;;;-18.70;74.32
59487;BME280;45298;54.918;73.504;2022-12-07T15:02:57;102395.03;;;-18.62;74.45
59487;BME280;45298;54.918;73.504;2022-12-07T15:05:26;102362.50;;;-18.86;74.55
59487;BME280;45298;54.918;73.504;2022-12-07T15:07:55;102353.81;;;-19.07;74.39
59487;BME280;45298;54.918;73.504;2022-12-07T15:10:27;102395.09;;;-18.89;74.52
59487;BME280;45298;54.918;73.504;2022-12-07T15:13:01;102377.38;;;-18.89;74.65